sensor_id;sensor_type;location;lat;lon;timestamp;P1;durP1;ratioP1;P2;durP2;ratioP2
5363;SDS011;2705;41.410;2.160;2022-09-01T00:00:09;3.50;;;1.70;;
5363;SDS011;2705;41.410;2.160;2022-09-01T00:02:41;2.90;;;1.80;;
5363;SDS011;2705;41.410;2.160;2022-09-01T00:05:11;3.43;;;2.00;;
5363;SDS011;2705;41.410;2.160;2022-09-01T00:07:40;4.77;;;2.83;;
5363;SDS011;2705;41.410;2.160;2022-09-01T00:10:09;5.00;;;2.87;;
5363;SDS011;2705;41.410;2.160;2022-09-01T00:12:39;3.90;;;2.27;;
5363;SDS011;2705;41.410;2.160;2022-09-01T00:15:09;3.63;;;2.43;;
5363;SDS011;2705;41.410;2.160;2022-09-01T00:17:39;5.97;;;2.87;;
5363;SDS011;2705;41.410;2.160;2022-09-01T00:20:09;5.37;;;2.40;;
5363;SDS011;2705;41.410;2.160;2022-09-01T00:22:43;2.23;;;1.93;;
5363;SDS011;2705;41.410;2.160;2022-09-01T00:25:12;3.17;;;2.20;;
5363;SDS011;2705;41.410;2.160;2022-09-01T00:27:44;3.70;;;1.93;;
5363;SDS011;2705;41.410;2.160;2022-09-01T00:30:14;5.17;;;2.20;;
5363;SDS011;2705;41.410;2.160;2022-09-01T00:32:43;3.93;;;2.23;;
5363;SDS011;2705;41.410;2.160;2022-09-01T00:35:13;3.03;;;2.00;;
5363;SDS011;2705;41.410;2.160;2022-09-01T00:37:44;3.30;;;2.60;;
5363;SDS011;2705;41.410;2.160;2022-09-01T00:40:14;2.27;;;1.50;;
5363;SDS011;2705;41.410;2.160;2022-09-01T00:42:46;6.13;;;2.10;;
5363;SDS011;2705;41.410;2.160;2022-09-01T00:45:15;5.13;;;1.67;;
5363;SDS011;2705;41.410;2.160;2022-09-01T00:47:48;3.57;;;1.97;;
5363;SDS011;2705;41.410;2.160;2022-09-01T00:50:17;5.37;;;1.70;;
5363;SDS011;2705;41.410;2.160;2022-09-01T00:52:48;6.30;;;1.90;;
5363;SDS011;2705;41.410;2.160;2022-09-01T00:55:21;2.70;;;1.80;;
5363;SDS011;2705;41.410;2.160;2022-09-01T00:57:53;4.90;;;2.10;;
5363;SDS011;2705;41.410;2.160;2022-09-01T01:00:24;3.57;;;2.07;;
5363;SDS011;2705;41.410;2.160;2022-09-01T01:02:54;3.23;;;2.10;;
5363;SDS011;2705;41.410;2.160;2022-09-01T01:05:28;3.67;;;2.00;;
5363;SDS011;2705;41.410;2.160;2022-09-01T01:08:00;3.00;;;1.60;;
5363;SDS011;2705;41.410;2.160;2022-09-01T01:10:31;2.20;;;1.43;;
5363;SDS011;2705;41.410;2.160;2022-09-01T01:13:07;2.07;;;1.40;;
5363;SDS011;2705;41.410;2.160;2022-09-01T01:15:37;2.57;;;1.50;;
5363;SDS011;2705;41.410;2.160;2022-09-01T01:18:10;2.00;;;1.50;;
5363;SDS011;2705;41.410;2.160;2022-09-01T01:20:39;2.67;;;1.47;;
5363;SDS011;2705;41.410;2.160;2022-09-01T01:23:28;2.03;;;1.60;;
5363;SDS011;2705;41.410;2.160;2022-09-01T01:26:05;2.13;;;1.40;;
5363;SDS011;2705;41.410;2.160;2022-09-01T01:28:38;2.23;;;1.20;;
5363;SDS011;2705;41.410;2.160;2022-09-01T01:31:10;2.00;;;1.20;;
5363;SDS011;2705;41.410;2.160;2022-09-01T01:33:43;3.10;;;1.50;;
5363;SDS011;2705;41.410;2.160;2022-09-01T01:36:15;3.70;;;1.40;;
5363;SDS011;2705;41.410;2.160;2022-09-01T01:38:48;3.20;;;1.30;;
5363;SDS011;2705;41.410;2.160;2022-09-01T01:41:19;3.60;;;1.50;;
5363;SDS011;2705;41.410;2.160;2022-09-01T01:43:50;1.97;;;1.30;;
5363;SDS011;2705;41.410;2.160;2022-09-01T01:46:19;1.77;;;1.20;;
5363;SDS011;2705;41.410;2.160;2022-09-01T01:48:49;1.67;;;1.20;;
5363;SDS011;2705;41.410;2.160;2022-09-01T01:51:19;2.13;;;1.33;;
5363;SDS011;2705;41.410;2.160;2022-09-01T01:53:50;2.20;;;1.73;;
5363;SDS011;2705;41.410;2.160;2022-09-01T01:56:22;1.63;;;1.17;;
5363;SDS011;2705;41.410;2.160;2022-09-01T01:58:52;4.60;;;1.80;;
5363;SDS011;2705;41.410;2.160;2022-09-01T02:01:22;4.73;;;1.90;;
5363;SDS011;2705;41.410;2.160;2022-09-01T02:03:55;3.00;;;1.60;;
5363;SDS011;2705;41.410;2.160;2022-09-01T02:06:27;5.33;;;1.80;;
5363;SDS011;2705;41.410;2.160;2022-09-01T02:08:59;3.10;;;1.60;;
5363;SDS011;2705;41.410;2.160;2022-09-01T02:11:31;2.33;;;1.73;;
5363;SDS011;2705;41.410;2.160;2022-09-01T02:14:05;3.83;;;1.80;;
5363;SDS011;2705;41.410;2.160;2022-09-01T02:16:35;5.50;;;1.60;;
5363;SDS011;2705;41.410;2.160;2022-09-01T02:19:05;2.87;;;1.60;;
5363;SDS011;2705;41.410;2.160;2022-09-01T02:21:38;2.60;;;1.60;;
5363;SDS011;2705;41.410;2.160;2022-09-01T02:24:10;2.40;;;1.60;;
5363;SDS011;2705;41.410;2.160;2022-09-01T02:26:41;2.20;;;1.70;;
5363;SDS011;2705;41.410;2.160;2022-09-01T02:29:17;4.90;;;2.10;;
5363;SDS011;2705;41.410;2.160;2022-09-01T02:31:48;7.60;;;2.30;;
5363;SDS011;2705;41.410;2.160;2022-09-01T02:34:19;2.67;;;2.00;;
5363;SDS011;2705;41.410;2.160;2022-09-01T02:36:52;5.60;;;2.20;;
5363;SDS011;2705;41.410;2.160;2022-09-01T02:39:24;10.10;;;2.40;;
5363;SDS011;2705;41.410;2.160;2022-09-01T02:41:56;4.93;;;1.90;;
5363;SDS011;2705;41.410;2.160;2022-09-01T02:44:27;4.00;;;2.10;;
5363;SDS011;2705;41.410;2.160;2022-09-01T02:46:59;5.83;;;3.07;;
5363;SDS011;2705;41.410;2.160;2022-09-01T02:49:32;3.37;;;1.90;;
5363;SDS011;2705;41.410;2.160;2022-09-01T02:52:01;3.93;;;2.20;;
5363;SDS011;2705;41.410;2.160;2022-09-01T02:54:33;4.47;;;2.00;;
5363;SDS011;2705;41.410;2.160;2022-09-01T02:57:03;2.17;;;1.53;;
5363;SDS011;2705;41.410;2.160;2022-09-01T02:59:35;2.60;;;1.80;;
5363;SDS011;2705;41.410;2.160;2022-09-01T03:02:09;2.63;;;1.30;;
5363;SDS011;2705;41.410;2.160;2022-09-01T03:04:38;3.13;;;1.40;;
5363;SDS011;2705;41.410;2.160;2022-09-01T03:07:08;2.00;;;1.20;;
5363;SDS011;2705;41.410;2.160;2022-09-01T03:09:39;3.80;;;1.43;;
5363;SDS011;2705;41.410;2.160;2022-09-01T03:12:10;3.30;;;1.83;;
5363;SDS011;2705;41.410;2.160;2022-09-01T03:14:39;8.40;;;1.50;;
5363;SDS011;2705;41.410;2.160;2022-09-01T03:17:08;2.57;;;1.30;;
5363;SDS011;2705;41.410;2.160;2022-09-01T03:19:37;6.10;;;1.60;;
5363;SDS011;2705;41.410;2.160;2022-09-01T03:22:08;6.13;;;1.30;;
5363;SDS011;2705;41.410;2.160;2022-09-01T03:24:38;5.83;;;1.47;;
5363;SDS011;2705;41.410;2.160;2022-09-01T03:27:06;4.73;;;1.33;;
5363;SDS011;2705;41.410;2.160;2022-09-01T03:29:39;2.70;;;1.40;;
5363;SDS011;2705;41.410;2.160;2022-09-01T03:32:08;2.20;;;1.37;;
5363;SDS011;2705;41.410;2.160;2022-09-01T03:34:38;2.60;;;1.60;;
5363;SDS011;2705;41.410;2.160;2022-09-01T03:37:07;4.47;;;2.27;;
5363;SDS011;2705;41.410;2.160;2022-09-01T03:39:38;4.63;;;2.93;;
5363;SDS011;2705;41.410;2.160;2022-09-01T03:42:07;4.70;;;2.50;;
5363;SDS011;2705;41.410;2.160;2022-09-01T03:44:40;5.60;;;2.13;;
5363;SDS011;2705;41.410;2.160;2022-09-01T03:47:13;3.80;;;1.90;;
5363;SDS011;2705;41.410;2.160;2022-09-01T03:49:43;2.07;;;1.43;;
5363;SDS011;2705;41.410;2.160;2022-09-01T03:52:15;3.43;;;1.70;;
5363;SDS011;2705;41.410;2.160;2022-09-01T03:54:44;2.10;;;1.67;;
5363;SDS011;2705;41.410;2.160;2022-09-01T03:57:12;5.37;;;1.53;;
5363;SDS011;2705;41.410;2.160;2022-09-01T03:59:44;6.50;;;1.80;;
5363;SDS011;2705;41.410;2.160;2022-09-01T04:02:13;2.90;;;1.50;;
5363;SDS011;2705;41.410;2.160;2022-09-01T04:04:43;2.87;;;1.70;;
5363;SDS011;2705;41.410;2.160;2022-09-01T04:07:12;2.93;;;1.77;;
5363;SDS011;2705;41.410;2.160;2022-09-01T04:09:45;4.83;;;1.73;;
5363;SDS011;2705;41.410;2.160;2022-09-01T04:12:14;8.60;;;2.10;;
5363;SDS011;2705;41.410;2.160;2022-09-01T04:14:50;6.50;;;1.70;;
5363;SDS011;2705;41.410;2.160;2022-09-01T04:17:20;3.00;;;1.63;;
5363;SDS011;2705;41.410;2.160;2022-09-01T04:20:06;4.00;;;1.60;;
5363;SDS011;2705;41.410;2.160;2022-09-01T04:22:36;4.47;;;1.50;;
5363;SDS011;2705;41.410;2.160;2022-09-01T04:25:08;3.20;;;1.60;;
5363;SDS011;2705;41.410;2.160;2022-09-01T04:27:37;2.73;;;1.70;;
5363;SDS011;2705;41.410;2.160;2022-09-01T04:30:09;5.43;;;1.67;;
5363;SDS011;2705;41.410;2.160;2022-09-01T04:32:44;4.10;;;1.50;;
5363;SDS011;2705;41.410;2.160;2022-09-01T04:35:13;6.80;;;1.97;;
5363;SDS011;2705;41.410;2.160;2022-09-01T04:37:43;5.73;;;1.80;;
5363;SDS011;2705;41.410;2.160;2022-09-01T04:40:16;1.93;;;1.53;;
5363;SDS011;2705;41.410;2.160;2022-09-01T04:42:45;3.43;;;1.50;;
5363;SDS011;2705;41.410;2.160;2022-09-01T04:45:16;2.43;;;1.97;;
5363;SDS011;2705;41.410;2.160;2022-09-01T04:47:48;5.57;;;1.77;;
5363;SDS011;2705;41.410;2.160;2022-09-01T04:50:18;3.27;;;1.60;;
5363;SDS011;2705;41.410;2.160;2022-09-01T04:53:06;7.43;;;1.83;;
5363;SDS011;2705;41.410;2.160;2022-09-01T04:55:43;3.70;;;1.80;;
5363;SDS011;2705;41.410;2.160;2022-09-01T04:58:18;3.87;;;1.93;;
5363;SDS011;2705;41.410;2.160;2022-09-01T05:00:49;2.10;;;1.70;;
5363;SDS011;2705;41.410;2.160;2022-09-01T05:03:20;3.00;;;1.40;;
5363;SDS011;2705;41.410;2.160;2022-09-01T05:05:55;3.10;;;1.50;;
5363;SDS011;2705;41.410;2.160;2022-09-01T05:08:26;4.70;;;1.67;;
5363;SDS011;2705;41.410;2.160;2022-09-01T05:11:02;3.47;;;1.80;;
5363;SDS011;2705;41.410;2.160;2022-09-01T05:13:45;5.30;;;1.97;;
5363;SDS011;2705;41.410;2.160;2022-09-01T05:16:17;7.27;;;1.97;;
5363;SDS011;2705;41.410;2.160;2022-09-01T05:18:54;5.07;;;2.03;;
5363;SDS011;2705;41.410;2.160;2022-09-01T05:21:30;7.60;;;2.70;;
5363;SDS011;2705;41.410;2.160;2022-09-01T05:23:59;3.67;;;2.40;;
5363;SDS011;2705;41.410;2.160;2022-09-01T05:26:31;7.57;;;2.37;;
5363;SDS011;2705;41.410;2.160;2022-09-01T05:29:03;12.00;;;4.00;;
5363;SDS011;2705;41.410;2.160;2022-09-01T05:31:38;5.73;;;2.03;;
5363;SDS011;2705;41.410;2.160;2022-09-01T05:34:08;2.57;;;1.97;;
5363;SDS011;2705;41.410;2.160;2022-09-01T05:36:42;10.33;;;1.77;;
5363;SDS011;2705;41.410;2.160;2022-09-01T05:39:14;3.77;;;1.60;;
5363;SDS011;2705;41.410;2.160;2022-09-01T05:41:44;6.33;;;2.00;;
5363;SDS011;2705;41.410;2.160;2022-09-01T05:44:15;4.70;;;2.10;;
5363;SDS011;2705;41.410;2.160;2022-09-01T05:46:46;8.20;;;3.40;;
5363;SDS011;2705;41.410;2.160;2022-09-01T05:49:16;14.67;;;3.70;;
5363;SDS011;2705;41.410;2.160;2022-09-01T05:51:48;11.47;;;4.00;;
5363;SDS011;2705;41.410;2.160;2022-09-01T05:54:21;21.63;;;4.47;;
5363;SDS011;2705;41.410;2.160;2022-09-01T05:56:54;17.77;;;4.00;;
5363;SDS011;2705;41.410;2.160;2022-09-01T05:59:45;27.83;;;6.50;;
5363;SDS011;2705;41.410;2.160;2022-09-01T06:02:24;12.40;;;4.97;;
5363;SDS011;2705;41.410;2.160;2022-09-01T06:04:56;16.00;;;5.90;;
5363;SDS011;2705;41.410;2.160;2022-09-01T06:07:31;15.27;;;4.37;;
5363;SDS011;2705;41.410;2.160;2022-09-01T06:10:02;15.03;;;5.27;;
5363;SDS011;2705;41.410;2.160;2022-09-01T06:12:33;17.13;;;5.13;;
5363;SDS011;2705;41.410;2.160;2022-09-01T06:15:02;8.23;;;4.40;;
5363;SDS011;2705;41.410;2.160;2022-09-01T06:17:48;8.70;;;4.20;;
5363;SDS011;2705;41.410;2.160;2022-09-01T06:20:18;9.27;;;4.43;;
5363;SDS011;2705;41.410;2.160;2022-09-01T06:22:49;5.10;;;2.10;;
5363;SDS011;2705;41.410;2.160;2022-09-01T06:25:19;4.33;;;2.50;;
5363;SDS011;2705;41.410;2.160;2022-09-01T06:27:48;5.43;;;2.53;;
5363;SDS011;2705;41.410;2.160;2022-09-01T06:30:19;8.90;;;2.67;;
5363;SDS011;2705;41.410;2.160;2022-09-01T06:32:59;6.30;;;2.23;;
5363;SDS011;2705;41.410;2.160;2022-09-01T06:35:30;6.80;;;2.70;;
5363;SDS011;2705;41.410;2.160;2022-09-01T06:38:00;3.43;;;2.40;;
5363;SDS011;2705;41.410;2.160;2022-09-01T06:40:48;4.33;;;2.60;;
5363;SDS011;2705;41.410;2.160;2022-09-01T06:43:21;8.50;;;2.17;;
5363;SDS011;2705;41.410;2.160;2022-09-01T06:45:51;8.77;;;2.73;;
5363;SDS011;2705;41.410;2.160;2022-09-01T06:48:27;6.17;;;2.67;;
5363;SDS011;2705;41.410;2.160;2022-09-01T06:51:08;5.77;;;2.70;;
5363;SDS011;2705;41.410;2.160;2022-09-01T06:53:44;6.00;;;2.67;;
5363;SDS011;2705;41.410;2.160;2022-09-01T06:56:26;3.50;;;2.00;;
5363;SDS011;2705;41.410;2.160;2022-09-01T06:58:59;5.80;;;2.50;;
5363;SDS011;2705;41.410;2.160;2022-09-01T07:01:30;10.00;;;2.93;;
5363;SDS011;2705;41.410;2.160;2022-09-01T07:04:02;5.60;;;2.80;;
5363;SDS011;2705;41.410;2.160;2022-09-01T07:06:45;3.80;;;2.70;;
5363;SDS011;2705;41.410;2.160;2022-09-01T07:09:46;14.93;;;3.07;;
5363;SDS011;2705;41.410;2.160;2022-09-01T07:12:43;13.33;;;3.90;;
5363;SDS011;2705;41.410;2.160;2022-09-01T07:15:32;10.60;;;5.00;;
5363;SDS011;2705;41.410;2.160;2022-09-01T07:18:25;17.77;;;5.50;;
5363;SDS011;2705;41.410;2.160;2022-09-01T07:20:58;12.27;;;5.63;;
5363;SDS011;2705;41.410;2.160;2022-09-01T07:23:53;19.10;;;5.80;;
5363;SDS011;2705;41.410;2.160;2022-09-01T07:26:59;13.87;;;4.37;;
5363;SDS011;2705;41.410;2.160;2022-09-01T07:29:37;5.17;;;2.37;;
5363;SDS011;2705;41.410;2.160;2022-09-01T07:32:07;3.97;;;2.30;;
5363;SDS011;2705;41.410;2.160;2022-09-01T07:34:57;7.03;;;1.77;;
5363;SDS011;2705;41.410;2.160;2022-09-01T07:37:29;3.00;;;2.10;;
5363;SDS011;2705;41.410;2.160;2022-09-01T07:40:20;4.53;;;2.00;;
5363;SDS011;2705;41.410;2.160;2022-09-01T07:43:33;9.27;;;2.60;;
5363;SDS011;2705;41.410;2.160;2022-09-01T07:46:32;4.10;;;2.10;;
5363;SDS011;2705;41.410;2.160;2022-09-01T07:49:06;4.93;;;2.40;;
5363;SDS011;2705;41.410;2.160;2022-09-01T07:51:57;7.63;;;2.20;;
5363;SDS011;2705;41.410;2.160;2022-09-01T07:54:32;4.77;;;2.13;;
5363;SDS011;2705;41.410;2.160;2022-09-01T07:57:03;4.80;;;2.33;;
5363;SDS011;2705;41.410;2.160;2022-09-01T07:59:34;3.97;;;2.50;;
5363;SDS011;2705;41.410;2.160;2022-09-01T08:02:11;6.00;;;2.00;;
5363;SDS011;2705;41.410;2.160;2022-09-01T08:04:42;3.27;;;2.00;;
5363;SDS011;2705;41.410;2.160;2022-09-01T08:07:12;2.27;;;1.70;;
5363;SDS011;2705;41.410;2.160;2022-09-01T08:09:44;2.83;;;2.20;;
5363;SDS011;2705;41.410;2.160;2022-09-01T08:12:14;10.10;;;2.40;;
5363;SDS011;2705;41.410;2.160;2022-09-01T08:14:50;9.57;;;3.03;;
5363;SDS011;2705;41.410;2.160;2022-09-01T08:17:40;10.93;;;3.97;;
5363;SDS011;2705;41.410;2.160;2022-09-01T08:20:19;8.40;;;3.40;;
5363;SDS011;2705;41.410;2.160;2022-09-01T08:22:54;15.33;;;3.57;;
5363;SDS011;2705;41.410;2.160;2022-09-01T08:25:29;4.30;;;2.30;;
5363;SDS011;2705;41.410;2.160;2022-09-01T08:27:58;3.27;;;2.67;;
5363;SDS011;2705;41.410;2.160;2022-09-01T08:30:29;9.90;;;4.20;;
5363;SDS011;2705;41.410;2.160;2022-09-01T08:33:00;10.90;;;4.00;;
5363;SDS011;2705;41.410;2.160;2022-09-01T08:35:41;10.63;;;6.70;;
5363;SDS011;2705;41.410;2.160;2022-09-01T08:38:14;13.63;;;5.67;;
5363;SDS011;2705;41.410;2.160;2022-09-01T08:40:49;8.57;;;2.97;;
5363;SDS011;2705;41.410;2.160;2022-09-01T08:43:36;10.40;;;6.20;;
5363;SDS011;2705;41.410;2.160;2022-09-01T08:46:17;5.20;;;2.40;;
5363;SDS011;2705;41.410;2.160;2022-09-01T08:48:52;4.07;;;2.83;;
5363;SDS011;2705;41.410;2.160;2022-09-01T08:52:05;8.47;;;4.30;;
5363;SDS011;2705;41.410;2.160;2022-09-01T08:54:46;10.40;;;6.73;;
5363;SDS011;2705;41.410;2.160;2022-09-01T08:57:19;6.90;;;3.23;;
5363;SDS011;2705;41.410;2.160;2022-09-01T09:00:27;6.30;;;3.83;;
5363;SDS011;2705;41.410;2.160;2022-09-01T09:03:11;9.00;;;4.00;;
5363;SDS011;2705;41.410;2.160;2022-09-01T09:05:52;15.00;;;4.57;;
5363;SDS011;2705;41.410;2.160;2022-09-01T09:08:37;16.40;;;4.17;;
5363;SDS011;2705;41.410;2.160;2022-09-01T09:14:16;7.33;;;3.10;;
5363;SDS011;2705;41.410;2.160;2022-09-01T09:16:56;5.90;;;3.30;;
5363;SDS011;2705;41.410;2.160;2022-09-01T09:19:27;8.33;;;4.20;;
5363;SDS011;2705;41.410;2.160;2022-09-01T09:21:59;11.33;;;3.80;;
5363;SDS011;2705;41.410;2.160;2022-09-01T09:24:30;12.03;;;4.20;;
5363;SDS011;2705;41.410;2.160;2022-09-01T09:27:15;8.43;;;3.50;;
5363;SDS011;2705;41.410;2.160;2022-09-01T09:29:47;8.13;;;4.80;;
5363;SDS011;2705;41.410;2.160;2022-09-01T09:32:18;10.87;;;4.40;;
5363;SDS011;2705;41.410;2.160;2022-09-01T09:35:16;8.13;;;3.67;;
5363;SDS011;2705;41.410;2.160;2022-09-01T09:37:48;7.10;;;3.90;;
5363;SDS011;2705;41.410;2.160;2022-09-01T09:40:18;11.57;;;3.50;;
5363;SDS011;2705;41.410;2.160;2022-09-01T09:43:00;9.20;;;3.47;;
5363;SDS011;2705;41.410;2.160;2022-09-01T09:45:33;5.40;;;3.63;;
5363;SDS011;2705;41.410;2.160;2022-09-01T09:48:08;10.07;;;4.57;;
5363;SDS011;2705;41.410;2.160;2022-09-01T09:50:55;7.20;;;3.30;;
5363;SDS011;2705;41.410;2.160;2022-09-01T09:53:41;6.20;;;3.67;;
5363;SDS011;2705;41.410;2.160;2022-09-01T09:56:15;7.20;;;3.77;;
5363;SDS011;2705;41.410;2.160;2022-09-01T09:58:46;16.70;;;3.90;;
5363;SDS011;2705;41.410;2.160;2022-09-01T10:01:28;7.17;;;3.27;;
5363;SDS011;2705;41.410;2.160;2022-09-01T10:04:00;9.70;;;5.40;;
5363;SDS011;2705;41.410;2.160;2022-09-01T10:06:31;5.00;;;3.00;;
5363;SDS011;2705;41.410;2.160;2022-09-01T10:09:03;8.77;;;3.70;;
5363;SDS011;2705;41.410;2.160;2022-09-01T10:11:35;9.77;;;4.70;;
5363;SDS011;2705;41.410;2.160;2022-09-01T10:14:09;6.23;;;3.63;;
5363;SDS011;2705;41.410;2.160;2022-09-01T10:17:03;9.13;;;3.67;;
5363;SDS011;2705;41.410;2.160;2022-09-01T10:19:36;6.90;;;5.37;;
5363;SDS011;2705;41.410;2.160;2022-09-01T10:22:08;7.13;;;3.10;;
5363;SDS011;2705;41.410;2.160;2022-09-01T10:24:41;7.97;;;3.03;;
5363;SDS011;2705;41.410;2.160;2022-09-01T10:27:18;8.30;;;3.23;;
5363;SDS011;2705;41.410;2.160;2022-09-01T10:29:50;7.23;;;3.37;;
5363;SDS011;2705;41.410;2.160;2022-09-01T10:32:41;7.73;;;3.50;;
5363;SDS011;2705;41.410;2.160;2022-09-01T10:35:21;5.67;;;3.03;;
5363;SDS011;2705;41.410;2.160;2022-09-01T10:37:52;11.90;;;3.80;;
5363;SDS011;2705;41.410;2.160;2022-09-01T10:40:35;5.77;;;2.93;;
5363;SDS011;2705;41.410;2.160;2022-09-01T10:43:23;5.93;;;3.80;;
5363;SDS011;2705;41.410;2.160;2022-09-01T10:49:19;8.37;;;3.60;;
5363;SDS011;2705;41.410;2.160;2022-09-01T10:52:04;5.43;;;3.40;;
5363;SDS011;2705;41.410;2.160;2022-09-01T11:03:52;11.03;;;4.57;;
5363;SDS011;2705;41.410;2.160;2022-09-01T11:06:42;8.60;;;4.63;;
5363;SDS011;2705;41.410;2.160;2022-09-01T11:10:05;6.27;;;4.57;;
5363;SDS011;2705;41.410;2.160;2022-09-01T11:13:04;6.07;;;3.97;;
5363;SDS011;2705;41.410;2.160;2022-09-01T11:15:50;14.80;;;5.37;;
5363;SDS011;2705;41.410;2.160;2022-09-01T11:18:27;11.37;;;4.30;;
5363;SDS011;2705;41.410;2.160;2022-09-01T11:21:12;10.13;;;5.30;;
5363;SDS011;2705;41.410;2.160;2022-09-01T11:23:44;11.23;;;5.67;;
5363;SDS011;2705;41.410;2.160;2022-09-01T11:32:23;6.93;;;4.10;;
5363;SDS011;2705;41.410;2.160;2022-09-01T11:35:00;6.40;;;4.10;;
5363;SDS011;2705;41.410;2.160;2022-09-01T11:37:33;11.50;;;5.20;;
5363;SDS011;2705;41.410;2.160;2022-09-01T11:40:04;6.90;;;4.40;;
5363;SDS011;2705;41.410;2.160;2022-09-01T11:42:37;10.20;;;4.97;;
5363;SDS011;2705;41.410;2.160;2022-09-01T11:45:13;8.03;;;5.03;;
5363;SDS011;2705;41.410;2.160;2022-09-01T11:47:48;9.73;;;5.53;;
5363;SDS011;2705;41.410;2.160;2022-09-01T11:50:46;13.55;;;5.25;;
5363;SDS011;2705;41.410;2.160;2022-09-01T12:01:15;10.07;;;5.27;;
5363;SDS011;2705;41.410;2.160;2022-09-01T12:03:47;6.17;;;4.60;;
5363;SDS011;2705;41.410;2.160;2022-09-01T12:06:20;10.17;;;5.10;;
5363;SDS011;2705;41.410;2.160;2022-09-01T12:08:51;8.00;;;4.33;;
5363;SDS011;2705;41.410;2.160;2022-09-01T12:11:24;11.67;;;4.70;;
5363;SDS011;2705;41.410;2.160;2022-09-01T12:14:00;8.77;;;6.60;;
5363;SDS011;2705;41.410;2.160;2022-09-01T12:16:38;8.23;;;5.20;;
5363;SDS011;2705;41.410;2.160;2022-09-01T12:19:20;8.97;;;5.13;;
5363;SDS011;2705;41.410;2.160;2022-09-01T12:21:55;15.17;;;5.30;;
5363;SDS011;2705;41.410;2.160;2022-09-01T12:24:28;8.90;;;4.60;;
5363;SDS011;2705;41.410;2.160;2022-09-01T12:27:00;12.23;;;5.30;;
5363;SDS011;2705;41.410;2.160;2022-09-01T12:29:32;12.53;;;8.90;;
5363;SDS011;2705;41.410;2.160;2022-09-01T12:32:01;9.90;;;5.07;;
5363;SDS011;2705;41.410;2.160;2022-09-01T12:34:36;10.70;;;5.50;;
5363;SDS011;2705;41.410;2.160;2022-09-01T12:37:09;7.50;;;5.33;;
5363;SDS011;2705;41.410;2.160;2022-09-01T12:39:47;10.37;;;5.67;;
5363;SDS011;2705;41.410;2.160;2022-09-01T12:42:25;6.93;;;4.97;;
5363;SDS011;2705;41.410;2.160;2022-09-01T12:45:09;9.40;;;5.77;;
5363;SDS011;2705;41.410;2.160;2022-09-01T12:47:48;12.93;;;6.10;;
5363;SDS011;2705;41.410;2.160;2022-09-01T12:50:40;10.70;;;5.50;;
5363;SDS011;2705;41.410;2.160;2022-09-01T12:53:16;11.73;;;5.73;;
5363;SDS011;2705;41.410;2.160;2022-09-01T12:55:53;9.07;;;5.50;;
5363;SDS011;2705;41.410;2.160;2022-09-01T12:58:29;12.10;;;4.97;;
5363;SDS011;2705;41.410;2.160;2022-09-01T13:01:01;7.17;;;3.90;;
5363;SDS011;2705;41.410;2.160;2022-09-01T13:03:44;12.77;;;5.77;;
5363;SDS011;2705;41.410;2.160;2022-09-01T13:06:33;9.33;;;4.30;;
5363;SDS011;2705;41.410;2.160;2022-09-01T13:09:02;7.60;;;5.20;;
5363;SDS011;2705;41.410;2.160;2022-09-01T13:11:31;6.90;;;5.40;;
5363;SDS011;2705;41.410;2.160;2022-09-01T13:14:20;16.00;;;7.50;;
5363;SDS011;2705;41.410;2.160;2022-09-01T13:16:53;11.23;;;4.60;;
5363;SDS011;2705;41.410;2.160;2022-09-01T13:19:21;11.30;;;4.80;;
5363;SDS011;2705;41.410;2.160;2022-09-01T13:21:56;10.50;;;5.53;;
5363;SDS011;2705;41.410;2.160;2022-09-01T13:24:25;10.80;;;4.97;;
5363;SDS011;2705;41.410;2.160;2022-09-01T13:26:57;7.10;;;5.03;;
5363;SDS011;2705;41.410;2.160;2022-09-01T13:29:46;9.00;;;5.80;;
5363;SDS011;2705;41.410;2.160;2022-09-01T13:32:18;9.40;;;5.87;;
5363;SDS011;2705;41.410;2.160;2022-09-01T13:34:48;14.10;;;6.20;;
5363;SDS011;2705;41.410;2.160;2022-09-01T13:37:19;12.10;;;7.00;;
5363;SDS011;2705;41.410;2.160;2022-09-01T13:39:49;10.83;;;5.50;;
5363;SDS011;2705;41.410;2.160;2022-09-01T13:42:18;10.23;;;5.40;;
5363;SDS011;2705;41.410;2.160;2022-09-01T13:44:47;8.40;;;5.23;;
5363;SDS011;2705;41.410;2.160;2022-09-01T13:47:22;11.80;;;6.10;;
5363;SDS011;2705;41.410;2.160;2022-09-01T13:49:56;12.97;;;6.27;;
5363;SDS011;2705;41.410;2.160;2022-09-01T13:52:36;7.30;;;4.80;;
5363;SDS011;2705;41.410;2.160;2022-09-01T13:55:07;8.80;;;5.00;;
5363;SDS011;2705;41.410;2.160;2022-09-01T13:57:37;8.07;;;4.90;;
5363;SDS011;2705;41.410;2.160;2022-09-01T14:00:08;10.30;;;5.93;;
5363;SDS011;2705;41.410;2.160;2022-09-01T14:02:42;12.53;;;5.20;;
5363;SDS011;2705;41.410;2.160;2022-09-01T14:05:17;6.63;;;4.90;;
5363;SDS011;2705;41.410;2.160;2022-09-01T14:07:47;11.83;;;5.27;;
5363;SDS011;2705;41.410;2.160;2022-09-01T14:10:16;13.70;;;5.63;;
5363;SDS011;2705;41.410;2.160;2022-09-01T14:12:46;13.47;;;5.70;;
5363;SDS011;2705;41.410;2.160;2022-09-01T14:15:16;14.80;;;5.90;;
5363;SDS011;2705;41.410;2.160;2022-09-01T14:17:54;11.93;;;5.20;;
5363;SDS011;2705;41.410;2.160;2022-09-01T14:20:26;12.93;;;5.63;;
5363;SDS011;2705;41.410;2.160;2022-09-01T14:23:03;11.43;;;5.83;;
5363;SDS011;2705;41.410;2.160;2022-09-01T14:25:33;13.80;;;5.63;;
5363;SDS011;2705;41.410;2.160;2022-09-01T14:28:03;15.90;;;7.60;;
5363;SDS011;2705;41.410;2.160;2022-09-01T14:30:32;7.80;;;5.37;;
5363;SDS011;2705;41.410;2.160;2022-09-01T14:33:03;12.83;;;5.57;;
5363;SDS011;2705;41.410;2.160;2022-09-01T14:35:35;8.70;;;4.90;;
5363;SDS011;2705;41.410;2.160;2022-09-01T14:38:06;10.07;;;5.13;;
5363;SDS011;2705;41.410;2.160;2022-09-01T14:40:35;12.27;;;5.10;;
5363;SDS011;2705;41.410;2.160;2022-09-01T14:43:06;12.23;;;5.73;;
5363;SDS011;2705;41.410;2.160;2022-09-01T14:45:37;11.83;;;5.03;;
5363;SDS011;2705;41.410;2.160;2022-09-01T14:48:08;10.87;;;4.80;;
5363;SDS011;2705;41.410;2.160;2022-09-01T14:50:38;14.40;;;5.20;;
5363;SDS011;2705;41.410;2.160;2022-09-01T14:53:09;8.93;;;5.70;;
5363;SDS011;2705;41.410;2.160;2022-09-01T14:55:39;11.33;;;4.93;;
5363;SDS011;2705;41.410;2.160;2022-09-01T14:58:10;7.60;;;5.20;;
5363;SDS011;2705;41.410;2.160;2022-09-01T15:00:39;10.20;;;5.50;;
5363;SDS011;2705;41.410;2.160;2022-09-01T15:03:10;9.80;;;4.97;;
5363;SDS011;2705;41.410;2.160;2022-09-01T15:05:39;9.83;;;5.00;;
5363;SDS011;2705;41.410;2.160;2022-09-01T15:08:09;9.90;;;5.40;;
5363;SDS011;2705;41.410;2.160;2022-09-01T15:10:43;8.40;;;5.20;;
5363;SDS011;2705;41.410;2.160;2022-09-01T15:13:12;11.47;;;6.40;;
5363;SDS011;2705;41.410;2.160;2022-09-01T15:15:41;8.77;;;5.10;;
5363;SDS011;2705;41.410;2.160;2022-09-01T15:18:12;13.60;;;5.50;;
5363;SDS011;2705;41.410;2.160;2022-09-01T15:20:41;15.63;;;6.60;;
5363;SDS011;2705;41.410;2.160;2022-09-01T15:23:15;10.50;;;5.57;;
5363;SDS011;2705;41.410;2.160;2022-09-01T15:25:45;12.77;;;7.23;;
5363;SDS011;2705;41.410;2.160;2022-09-01T15:28:15;9.90;;;5.70;;
5363;SDS011;2705;41.410;2.160;2022-09-01T15:30:44;9.10;;;5.60;;
5363;SDS011;2705;41.410;2.160;2022-09-01T15:33:15;8.57;;;5.10;;
5363;SDS011;2705;41.410;2.160;2022-09-01T15:35:45;10.83;;;5.30;;
5363;SDS011;2705;41.410;2.160;2022-09-01T15:38:14;14.17;;;5.60;;
5363;SDS011;2705;41.410;2.160;2022-09-01T15:40:44;11.30;;;5.80;;
5363;SDS011;2705;41.410;2.160;2022-09-01T15:43:24;8.60;;;5.40;;
5363;SDS011;2705;41.410;2.160;2022-09-01T15:45:55;10.37;;;5.20;;
5363;SDS011;2705;41.410;2.160;2022-09-01T15:48:27;15.30;;;5.63;;
5363;SDS011;2705;41.410;2.160;2022-09-01T15:51:00;7.80;;;5.40;;
5363;SDS011;2705;41.410;2.160;2022-09-01T15:53:54;15.73;;;7.20;;
5363;SDS011;2705;41.410;2.160;2022-09-01T15:56:24;11.90;;;6.70;;
5363;SDS011;2705;41.410;2.160;2022-09-01T15:58:53;12.67;;;9.50;;
5363;SDS011;2705;41.410;2.160;2022-09-01T16:01:28;11.90;;;5.70;;
5363;SDS011;2705;41.410;2.160;2022-09-01T16:03:59;11.90;;;5.83;;
5363;SDS011;2705;41.410;2.160;2022-09-01T16:06:30;10.40;;;5.77;;
5363;SDS011;2705;41.410;2.160;2022-09-01T16:08:59;9.30;;;6.33;;
5363;SDS011;2705;41.410;2.160;2022-09-01T16:11:28;10.03;;;5.50;;
5363;SDS011;2705;41.410;2.160;2022-09-01T16:13:57;11.53;;;6.13;;
5363;SDS011;2705;41.410;2.160;2022-09-01T16:16:32;14.10;;;6.30;;
5363;SDS011;2705;41.410;2.160;2022-09-01T16:19:13;9.90;;;6.13;;
5363;SDS011;2705;41.410;2.160;2022-09-01T16:21:51;8.13;;;5.13;;
5363;SDS011;2705;41.410;2.160;2022-09-01T16:24:29;7.77;;;5.40;;